Time,TemperatureF,DewpointF,PressureIn,WindDirection,WindDirectionDegrees,WindSpeedMPH,WindSpeedGustMPH,Humidity,HourlyPrecipIn,Conditions,Clouds,dailyrainin,SoftwareType,DateUTC
2013-03-27 00:02:00,70.0,64.0,-100.00,NNW,336,3.0,7.0,82,0.00,,,0.00,,2013-03-27 10:02:00,
2013-03-27 00:12:00,70.0,64.0,-100.00,NNW,336,3.0,7.0,82,0.00,,,0.00,,2013-03-27 10:12:00,
2013-03-27 00:22:00,70.0,64.0,-100.00,NNW,336,3.0,7.0,82,0.00,,,0.00,,2013-03-27 10:22:00,
2013-03-27 00:32:00,70.0,64.0,-100.00,NNW,336,3.0,7.0,82,0.00,,,0.00,,2013-03-27 10:32:00,
2013-03-27 00:41:00,69.0,63.0,-100.00,North,349,2.0,8.0,80,0.00,,,0.00,,2013-03-27 10:41:00,
2013-03-27 01:02:00,69.0,63.0,-100.00,North,349,2.0,8.0,80,0.00,,,0.00,,2013-03-27 11:02:00,
2013-03-27 01:12:00,69.0,63.0,-100.00,North,349,2.0,8.0,80,0.00,,,0.00,,2013-03-27 11:12:00,
2013-03-27 01:22:00,69.0,63.0,-100.00,North,349,2.0,8.0,80,0.00,,,0.00,,2013-03-27 11:22:00,
2013-03-27 01:32:00,69.0,63.0,-100.00,North,349,2.0,8.0,80,0.00,,,0.00,,2013-03-27 11:32:00,
2013-03-27 01:41:00,69.0,64.0,-100.00,North,359,2.0,5.0,85,0.00,,,0.00,,2013-03-27 11:41:00,
2013-03-27 02:02:00,69.0,64.0,-100.00,North,359,2.0,5.0,85,0.00,,,0.00,,2013-03-27 12:02:00,
2013-03-27 02:12:00,69.0,64.0,-100.00,North,359,2.0,5.0,85,0.00,,,0.00,,2013-03-27 12:12:00,
2013-03-27 02:22:00,69.0,64.0,-100.00,North,359,2.0,5.0,85,0.00,,,0.00,,2013-03-27 12:22:00,
2013-03-27 02:32:00,69.0,64.0,-100.00,North,359,2.0,5.0,85,0.00,,,0.00,,2013-03-27 12:32:00,
2013-03-27 02:41:00,69.0,64.0,-100.00,NNW,336,3.0,5.0,84,0.00,,,0.00,,2013-03-27 12:41:00,
2013-03-27 03:02:00,69.0,64.0,-100.00,NNW,336,3.0,5.0,84,0.00,,,0.00,,2013-03-27 13:02:00,
2013-03-27 03:12:00,69.0,64.0,-100.00,NNW,336,3.0,5.0,84,0.00,,,0.00,,2013-03-27 13:12:00,
2013-03-27 03:22:00,69.0,64.0,-100.00,NNW,336,3.0,5.0,84,0.00,,,0.00,,2013-03-27 13:22:00,
2013-03-27 03:32:00,69.0,64.0,-100.00,NNW,336,3.0,5.0,84,0.00,,,0.00,,2013-03-27 13:32:00,
2013-03-27 03:41:00,71.0,65.0,-100.00,NNW,342,4.0,9.0,80,0.00,,,0.00,,2013-03-27 13:41:00,
2013-03-27 04:02:00,71.0,65.0,-100.00,NNW,342,4.0,9.0,80,0.00,,,0.00,,2013-03-27 14:02:00,
2013-03-27 04:12:00,71.0,65.0,-100.00,NNW,342,4.0,9.0,80,0.00,,,0.00,,2013-03-27 14:12:00,
2013-03-27 04:22:00,71.0,65.0,-100.00,NNW,342,4.0,9.0,80,0.00,,,0.00,,2013-03-27 14:22:00,
2013-03-27 04:32:00,71.0,65.0,-100.00,NNW,342,4.0,9.0,80,0.00,,,0.00,,2013-03-27 14:32:00,
2013-03-27 04:41:00,71.0,64.0,-100.00,NNW,335,5.0,7.0,78,0.00,,,0.00,,2013-03-27 14:41:00,
2013-03-27 05:02:00,71.0,64.0,-100.00,NNW,335,5.0,7.0,78,0.00,,,0.00,,2013-03-27 15:02:00,
2013-03-27 05:12:00,71.0,64.0,-100.00,NNW,335,5.0,7.0,78,0.00,,,0.00,,2013-03-27 15:12:00,
2013-03-27 05:22:00,71.0,64.0,-100.00,NNW,335,5.0,7.0,78,0.00,,,0.00,,2013-03-27 15:22:00,
2013-03-27 05:32:00,71.0,64.0,-100.00,NNW,335,5.0,7.0,78,0.00,,,0.00,,2013-03-27 15:32:00,
2013-03-27 05:41:00,71.0,65.0,-100.00,NNW,335,6.0,10.0,80,0.00,,,0.00,,2013-03-27 15:41:00,
2013-03-27 06:02:00,71.0,65.0,-100.00,NNW,335,6.0,10.0,80,0.00,,,0.00,,2013-03-27 16:02:00,
2013-03-27 06:12:00,71.0,65.0,-100.00,NNW,335,6.0,10.0,80,0.00,,,0.00,,2013-03-27 16:12:00,
2013-03-27 06:22:00,71.0,65.0,-100.00,NNW,335,6.0,10.0,80,0.00,,,0.00,,2013-03-27 16:22:00,
2013-03-27 06:32:00,71.0,65.0,-100.00,NNW,335,6.0,10.0,80,0.00,,,0.00,,2013-03-27 16:32:00,
2013-03-27 07:41:00,71.0,66.0,-100.00,NNW,342,8.0,12.0,84,-99.99,,,0.00,,2013-03-27 17:41:00,
2013-03-27 08:12:00,71.0,66.0,-100.00,NNW,342,8.0,12.0,84,-99.99,,,0.00,,2013-03-27 18:12:00,
2013-03-27 08:22:00,71.0,66.0,-100.00,NNW,342,8.0,12.0,84,-99.99,,,0.00,,2013-03-27 18:22:00,
2013-03-27 08:32:00,71.0,66.0,-100.00,NNW,342,8.0,12.0,84,-99.99,,,0.00,,2013-03-27 18:32:00,
2013-03-27 08:41:00,73.0,68.0,-100.00,NNW,344,6.0,12.0,83,0.00,,,0.00,,2013-03-27 18:41:00,
2013-03-27 09:02:00,73.0,68.0,-100.00,NNW,344,6.0,12.0,83,0.00,,,0.00,,2013-03-27 19:02:00,
2013-03-27 09:12:00,73.0,68.0,-100.00,NNW,344,6.0,12.0,83,0.00,,,0.00,,2013-03-27 19:12:00,
2013-03-27 09:21:00,73.0,68.0,-100.00,NNW,344,6.0,12.0,83,0.00,,,0.00,,2013-03-27 19:21:00,
2013-03-27 09:32:00,73.0,68.0,-100.00,NNW,344,6.0,12.0,83,0.00,,,0.00,,2013-03-27 19:32:00,
2013-03-27 09:41:00,73.0,69.0,-100.00,NNE,15,5.0,14.0,87,0.00,,,0.00,,2013-03-27 19:41:00,
2013-03-27 10:02:00,73.0,69.0,-100.00,NNE,15,5.0,14.0,87,0.00,,,0.00,,2013-03-27 20:02:00,
2013-03-27 10:12:00,73.0,69.0,-100.00,NNE,15,5.0,14.0,87,0.00,,,0.00,,2013-03-27 20:12:00,
2013-03-27 10:22:00,73.0,69.0,-100.00,NNE,15,5.0,14.0,87,0.00,,,0.00,,2013-03-27 20:22:00,
2013-03-27 10:32:00,73.0,69.0,-100.00,NNE,15,5.0,14.0,87,0.00,,,0.00,,2013-03-27 20:32:00,
2013-03-27 10:41:00,74.0,66.0,-100.00,North,359,6.0,11.0,77,0.00,,,0.00,,2013-03-27 20:41:00,
2013-03-27 11:02:00,74.0,66.0,-100.00,North,359,6.0,11.0,77,0.00,,,0.00,,2013-03-27 21:02:00,
2013-03-27 11:12:00,74.0,66.0,-100.00,North,359,6.0,11.0,77,0.00,,,0.00,,2013-03-27 21:12:00,
2013-03-27 11:22:00,74.0,66.0,-100.00,North,359,6.0,11.0,77,0.00,,,0.00,,2013-03-27 21:22:00,
2013-03-27 11:32:00,74.0,66.0,-100.00,North,359,6.0,11.0,77,0.00,,,0.00,,2013-03-27 21:32:00,
2013-03-27 11:41:00,73.0,70.0,-100.00,NNE,19,4.0,11.0,89,0.10,,,0.10,,2013-03-27 21:41:00,
2013-03-27 12:03:00,73.0,70.0,-100.00,NNE,19,4.0,11.0,89,0.10,,,0.10,,2013-03-27 22:03:00,
2013-03-27 12:12:00,73.0,70.0,-100.00,NNE,19,4.0,11.0,89,0.10,,,0.10,,2013-03-27 22:12:00,
2013-03-27 12:23:00,73.0,70.0,-100.00,NNE,19,4.0,11.0,89,0.10,,,0.10,,2013-03-27 22:23:00,
2013-03-27 12:32:00,73.0,70.0,-100.00,NNE,19,4.0,11.0,89,0.10,,,0.10,,2013-03-27 22:32:00,
2013-03-27 12:41:00,72.0,66.0,-100.00,ENE,64,4.0,11.0,82,0.03,,,0.13,,2013-03-27 22:41:00,
2013-03-27 13:02:00,72.0,66.0,-100.00,ENE,64,4.0,11.0,82,0.03,,,0.13,,2013-03-27 23:02:00,
2013-03-27 13:12:00,72.0,66.0,-100.00,ENE,64,4.0,11.0,82,0.03,,,0.13,,2013-03-27 23:12:00,
2013-03-27 13:22:00,72.0,66.0,-100.00,ENE,64,4.0,11.0,82,0.03,,,0.13,,2013-03-27 23:22:00,
2013-03-27 13:32:00,72.0,66.0,-100.00,ENE,64,4.0,11.0,82,0.03,,,0.13,,2013-03-27 23:32:00,
2013-03-27 13:41:00,75.0,67.0,-100.00,North,5,8.0,15.0,77,0.00,,,0.13,,2013-03-27 23:41:00,
2013-03-27 14:02:00,75.0,67.0,-100.00,North,5,8.0,15.0,77,0.00,,,0.13,,2013-03-28 00:02:00,
2013-03-27 14:12:00,75.0,67.0,-100.00,North,5,8.0,15.0,77,0.00,,,0.13,,2013-03-28 00:12:00,
2013-03-27 14:22:00,75.0,67.0,-100.00,North,5,8.0,15.0,77,0.00,,,0.13,,2013-03-28 00:22:00,
2013-03-27 14:32:00,75.0,67.0,-100.00,North,5,8.0,15.0,77,0.00,,,0.13,,2013-03-28 00:32:00,